首页
METAR-TAF:

METAR-TAF

机场 :

呵叻, 泰国

纬度: 14-56-58N, 经度: 102-18-45E, 海拔: 233米

当前天气观测

该预报发布于51分钟前的05:00 UTC
风速5节,风向西转西北,在西南北转西北之间变化
温度 28°C
湿度 84%
气压 1007 hPa
能見度: 9000
散云层高于2000英尺
多云层高于8000英尺

METAR: VTUQ 150500Z 29005KT 230V330 9000 SCT020 BKN080 28/25 Q1007 NOSIG

时间: 12:51 (05:51 UTC)

预报

该预报发布于51分钟前的05:00 UTC
预报有效从15日的 06点(UTC)到 16日的 06点(UTC)
风速5节,风向西
能見度: 8000
散云层高于2500英尺
短暂存在
从 15日的 06点(UTC)到 15日的 12点(UTC)
少量云层高于1800英尺, 积雨云.
多云层高于2500英尺
雷暴, 小雨
短暂存在
从 16日的 00点(UTC)到 16日的 06点(UTC)
少量云层高于1800英尺, 积雨云.
多云层高于2500英尺
雷暴, 小雨,

TAF: VTUQ 150500Z 1506/1606 27005KT 8000 SCT025 TEMPO 1506/1512 -TSRA FEW018CB BKN025 TEMPO 1600/1606 -TSRA FEW018CB BKN025

超过4000个机场的气象观测和天气预报(METAR&TAF报告)。

可查询的气象台以黄色和红色小点在地图上表示。

将鼠标移到小点上方,可查看气象台名称。

然后点击查看天气观测和预报。

如需切换地图:点击带黑十字的绿色按钮放大地图;点击带横线的绿色按钮缩小地图;或者点击绿色箭头查看邻近地区的地图。


METAR-TAF: